sensor_id;sensor_type;location;lat;lon;timestamp;temperature;humidity
18126;DHT22;53956;52.442;13.284;2023-03-01T00:01:37;4.80;84.20
18126;DHT22;53956;52.442;13.284;2023-03-01T00:04:04;4.90;84.00
18126;DHT22;53956;52.442;13.284;2023-03-01T00:06:31;4.90;84.30
18126;DHT22;53956;52.442;13.284;2023-03-01T00:08:57;5.10;84.10
18126;DHT22;53956;52.442;13.284;2023-03-01T00:11:27;4.80;84.10
18126;DHT22;53956;52.442;13.284;2023-03-01T00:13:55;4.90;83.20
18126;DHT22;53956;52.442;13.284;2023-03-01T00:16:24;4.80;83.70
18126;DHT22;53956;52.442;13.284;2023-03-01T00:18:51;4.80;84.10
18126;DHT22;53956;52.442;13.284;2023-03-01T00:21:20;4.70;83.70
18126;DHT22;53956;52.442;13.284;2023-03-01T00:23:46;4.70;84.20
18126;DHT22;53956;52.442;13.284;2023-03-01T00:26:15;4.70;83.60
18126;DHT22;53956;52.442;13.284;2023-03-01T00:28:45;4.80;83.50
18126;DHT22;53956;52.442;13.284;2023-03-01T00:31:14;4.70;83.40
18126;DHT22;53956;52.442;13.284;2023-03-01T00:33:41;4.70;83.70
18126;DHT22;53956;52.442;13.284;2023-03-01T00:36:08;4.50;84.30
18126;DHT22;53956;52.442;13.284;2023-03-01T00:38:35;4.50;83.70
18126;DHT22;53956;52.442;13.284;2023-03-01T00:41:04;4.50;83.90
18126;DHT22;53956;52.442;13.284;2023-03-01T00:43:30;4.60;83.80
18126;DHT22;53956;52.442;13.284;2023-03-01T00:46:04;4.40;84.40
18126;DHT22;53956;52.442;13.284;2023-03-01T00:48:31;4.60;83.80
18126;DHT22;53956;52.442;13.284;2023-03-01T00:51:04;4.90;83.10
18126;DHT22;53956;52.442;13.284;2023-03-01T00:53:31;4.60;83.60
18126;DHT22;53956;52.442;13.284;2023-03-01T00:55:58;4.50;84.00
18126;DHT22;53956;52.442;13.284;2023-03-01T00:58:25;4.30;84.10
18126;DHT22;53956;52.442;13.284;2023-03-01T01:00:52;4.40;84.70
18126;DHT22;53956;52.442;13.284;2023-03-01T01:03:20;4.20;84.40
18126;DHT22;53956;52.442;13.284;2023-03-01T01:05:47;4.20;84.20
18126;DHT22;53956;52.442;13.284;2023-03-01T01:08:13;4.50;84.50
18126;DHT22;53956;52.442;13.284;2023-03-01T01:10:40;4.40;84.30
18126;DHT22;53956;52.442;13.284;2023-03-01T01:13:09;4.30;84.40
18126;DHT22;53956;52.442;13.284;2023-03-01T01:15:36;4.20;85.00
18126;DHT22;53956;52.442;13.284;2023-03-01T01:18:03;4.30;84.30
18126;DHT22;53956;52.442;13.284;2023-03-01T01:20:31;4.30;84.80
18126;DHT22;53956;52.442;13.284;2023-03-01T01:22:58;4.50;84.70
18126;DHT22;53956;52.442;13.284;2023-03-01T01:25:24;4.30;84.80
18126;DHT22;53956;52.442;13.284;2023-03-01T01:27:51;4.40;84.60
18126;DHT22;53956;52.442;13.284;2023-03-01T01:30:18;4.30;85.10
18126;DHT22;53956;52.442;13.284;2023-03-01T01:32:44;4.20;85.10
18126;DHT22;53956;52.442;13.284;2023-03-01T01:35:11;4.20;84.70
18126;DHT22;53956;52.442;13.284;2023-03-01T01:37:39;4.10;84.60
18126;DHT22;53956;52.442;13.284;2023-03-01T01:40:08;4.20;85.00
18126;DHT22;53956;52.442;13.284;2023-03-01T01:42:35;4.00;84.90
18126;DHT22;53956;52.442;13.284;2023-03-01T01:45:26;4.20;84.90
18126;DHT22;53956;52.442;13.284;2023-03-01T01:47:55;4.20;84.90
18126;DHT22;53956;52.442;13.284;2023-03-01T01:50:23;4.50;84.90
18126;DHT22;53956;52.442;13.284;2023-03-01T01:52:53;4.30;85.00
18126;DHT22;53956;52.442;13.284;2023-03-01T01:55:23;4.10;85.20
18126;DHT22;53956;52.442;13.284;2023-03-01T01:57:52;4.20;85.20
18126;DHT22;53956;52.442;13.284;2023-03-01T02:00:22;4.30;84.90
18126;DHT22;53956;52.442;13.284;2023-03-01T02:02:57;4.30;84.80
18126;DHT22;53956;52.442;13.284;2023-03-01T02:05:32;4.30;84.70
18126;DHT22;53956;52.442;13.284;2023-03-01T02:08:03;4.10;84.60
18126;DHT22;53956;52.442;13.284;2023-03-01T02:10:33;4.10;84.40
18126;DHT22;53956;52.442;13.284;2023-03-01T02:13:01;4.10;84.70
18126;DHT22;53956;52.442;13.284;2023-03-01T02:15:32;4.30;85.00
18126;DHT22;53956;52.442;13.284;2023-03-01T02:17:59;4.30;84.70
18126;DHT22;53956;52.442;13.284;2023-03-01T02:20:34;4.20;85.20
18126;DHT22;53956;52.442;13.284;2023-03-01T02:23:03;4.10;85.10
18126;DHT22;53956;52.442;13.284;2023-03-01T02:25:36;4.20;84.60
18126;DHT22;53956;52.442;13.284;2023-03-01T02:28:10;4.00;85.20
18126;DHT22;53956;52.442;13.284;2023-03-01T02:30:40;4.10;85.30
18126;DHT22;53956;52.442;13.284;2023-03-01T02:33:28;4.00;85.60
18126;DHT22;53956;52.442;13.284;2023-03-01T02:35:59;4.10;85.60
18126;DHT22;53956;52.442;13.284;2023-03-01T02:38:26;4.10;85.40
18126;DHT22;53956;52.442;13.284;2023-03-01T02:40:54;4.20;84.80
18126;DHT22;53956;52.442;13.284;2023-03-01T02:43:25;4.20;84.20
18126;DHT22;53956;52.442;13.284;2023-03-01T02:45:58;4.20;84.00
18126;DHT22;53956;52.442;13.284;2023-03-01T02:48:25;4.30;84.40
18126;DHT22;53956;52.442;13.284;2023-03-01T02:51:03;4.10;83.90
18126;DHT22;53956;52.442;13.284;2023-03-01T02:53:38;3.90;84.80
18126;DHT22;53956;52.442;13.284;2023-03-01T02:56:05;3.90;84.40
18126;DHT22;53956;52.442;13.284;2023-03-01T02:58:39;3.90;85.20
18126;DHT22;53956;52.442;13.284;2023-03-01T03:01:13;3.70;85.00
18126;DHT22;53956;52.442;13.284;2023-03-01T03:03:41;3.50;85.80
18126;DHT22;53956;52.442;13.284;2023-03-01T03:06:08;3.50;86.00
18126;DHT22;53956;52.442;13.284;2023-03-01T03:08:35;3.70;86.00
18126;DHT22;53956;52.442;13.284;2023-03-01T03:11:02;3.80;85.70
18126;DHT22;53956;52.442;13.284;2023-03-01T03:13:30;3.90;86.60
18126;DHT22;53956;52.442;13.284;2023-03-01T03:15:58;3.90;85.50
18126;DHT22;53956;52.442;13.284;2023-03-01T03:18:26;4.00;85.50
18126;DHT22;53956;52.442;13.284;2023-03-01T03:20:53;3.70;86.40
18126;DHT22;53956;52.442;13.284;2023-03-01T03:23:21;3.80;85.60
18126;DHT22;53956;52.442;13.284;2023-03-01T03:25:48;3.70;86.00
18126;DHT22;53956;52.442;13.284;2023-03-01T03:28:16;3.80;86.20
18126;DHT22;53956;52.442;13.284;2023-03-01T03:30:44;3.70;86.00
18126;DHT22;53956;52.442;13.284;2023-03-01T03:33:12;3.80;86.40
18126;DHT22;53956;52.442;13.284;2023-03-01T03:35:42;3.70;86.90
18126;DHT22;53956;52.442;13.284;2023-03-01T03:38:10;3.60;86.20
18126;DHT22;53956;52.442;13.284;2023-03-01T03:40:43;3.70;86.20
18126;DHT22;53956;52.442;13.284;2023-03-01T03:43:13;3.60;85.80
18126;DHT22;53956;52.442;13.284;2023-03-01T03:45:40;3.60;86.40
18126;DHT22;53956;52.442;13.284;2023-03-01T03:48:08;3.50;86.10
18126;DHT22;53956;52.442;13.284;2023-03-01T03:50:35;3.50;86.20
18126;DHT22;53956;52.442;13.284;2023-03-01T03:53:05;3.40;86.00
18126;DHT22;53956;52.442;13.284;2023-03-01T03:55:32;3.60;85.90
18126;DHT22;53956;52.442;13.284;2023-03-01T03:58:00;3.60;85.40
18126;DHT22;53956;52.442;13.284;2023-03-01T04:00:33;3.60;85.40
18126;DHT22;53956;52.442;13.284;2023-03-01T04:03:00;3.50;85.80
18126;DHT22;53956;52.442;13.284;2023-03-01T04:05:27;3.40;85.50
18126;DHT22;53956;52.442;13.284;2023-03-01T04:07:54;3.50;85.80
18126;DHT22;53956;52.442;13.284;2023-03-01T04:10:30;3.40;86.50
18126;DHT22;53956;52.442;13.284;2023-03-01T04:12:57;3.20;86.40
18126;DHT22;53956;52.442;13.284;2023-03-01T04:15:25;3.40;86.90
18126;DHT22;53956;52.442;13.284;2023-03-01T04:17:53;3.40;87.30
18126;DHT22;53956;52.442;13.284;2023-03-01T04:20:23;3.50;87.10
18126;DHT22;53956;52.442;13.284;2023-03-01T04:22:51;3.40;87.10
18126;DHT22;53956;52.442;13.284;2023-03-01T04:25:18;3.30;87.00
18126;DHT22;53956;52.442;13.284;2023-03-01T04:27:46;3.50;87.50
18126;DHT22;53956;52.442;13.284;2023-03-01T04:30:13;3.50;86.60
18126;DHT22;53956;52.442;13.284;2023-03-01T04:32:40;3.50;87.00
18126;DHT22;53956;52.442;13.284;2023-03-01T04:35:07;3.40;86.70
18126;DHT22;53956;52.442;13.284;2023-03-01T04:37:34;3.40;87.20
18126;DHT22;53956;52.442;13.284;2023-03-01T04:40:02;3.30;86.80
18126;DHT22;53956;52.442;13.284;2023-03-01T04:42:37;3.40;86.80
18126;DHT22;53956;52.442;13.284;2023-03-01T04:45:07;3.40;86.90
18126;DHT22;53956;52.442;13.284;2023-03-01T04:47:39;3.40;86.90
18126;DHT22;53956;52.442;13.284;2023-03-01T04:50:06;3.30;86.70
18126;DHT22;53956;52.442;13.284;2023-03-01T04:52:34;3.10;86.70
18126;DHT22;53956;52.442;13.284;2023-03-01T04:55:01;3.20;87.10
18126;DHT22;53956;52.442;13.284;2023-03-01T04:57:29;3.30;87.30
18126;DHT22;53956;52.442;13.284;2023-03-01T04:59:55;3.40;87.20
18126;DHT22;53956;52.442;13.284;2023-03-01T05:02:23;3.20;87.40
18126;DHT22;53956;52.442;13.284;2023-03-01T05:04:50;3.50;87.10
18126;DHT22;53956;52.442;13.284;2023-03-01T05:07:17;3.40;85.90
18126;DHT22;53956;52.442;13.284;2023-03-01T05:09:45;3.30;86.00
18126;DHT22;53956;52.442;13.284;2023-03-01T05:12:12;3.40;86.00
18126;DHT22;53956;52.442;13.284;2023-03-01T05:14:39;3.20;87.00
18126;DHT22;53956;52.442;13.284;2023-03-01T05:17:06;3.10;87.00
18126;DHT22;53956;52.442;13.284;2023-03-01T05:19:34;3.10;87.00
18126;DHT22;53956;52.442;13.284;2023-03-01T05:22:01;3.20;87.10
18126;DHT22;53956;52.442;13.284;2023-03-01T05:24:32;3.10;87.20
18126;DHT22;53956;52.442;13.284;2023-03-01T05:26:59;2.90;87.20
18126;DHT22;53956;52.442;13.284;2023-03-01T05:29:27;3.40;87.00
18126;DHT22;53956;52.442;13.284;2023-03-01T05:31:55;3.30;87.30
18126;DHT22;53956;52.442;13.284;2023-03-01T05:34:24;3.30;86.60
18126;DHT22;53956;52.442;13.284;2023-03-01T05:36:52;3.10;87.00
18126;DHT22;53956;52.442;13.284;2023-03-01T05:39:20;3.10;87.00
18126;DHT22;53956;52.442;13.284;2023-03-01T05:41:48;3.10;87.00
18126;DHT22;53956;52.442;13.284;2023-03-01T05:44:15;3.20;87.70
18126;DHT22;53956;52.442;13.284;2023-03-01T05:46:42;3.10;87.90
18126;DHT22;53956;52.442;13.284;2023-03-01T05:49:10;3.10;88.40
18126;DHT22;53956;52.442;13.284;2023-03-01T05:51:38;3.10;88.50
18126;DHT22;53956;52.442;13.284;2023-03-01T05:54:06;3.20;88.00
18126;DHT22;53956;52.442;13.284;2023-03-01T05:56:33;3.10;88.50
18126;DHT22;53956;52.442;13.284;2023-03-01T05:59:00;3.00;88.30
18126;DHT22;53956;52.442;13.284;2023-03-01T06:01:27;3.20;88.50
18126;DHT22;53956;52.442;13.284;2023-03-01T06:03:54;3.00;88.40
18126;DHT22;53956;52.442;13.284;2023-03-01T06:06:22;3.20;87.90
18126;DHT22;53956;52.442;13.284;2023-03-01T06:08:49;3.20;88.10
18126;DHT22;53956;52.442;13.284;2023-03-01T06:11:17;3.00;88.50
18126;DHT22;53956;52.442;13.284;2023-03-01T06:13:45;3.30;87.60
18126;DHT22;53956;52.442;13.284;2023-03-01T06:16:12;3.20;87.00
18126;DHT22;53956;52.442;13.284;2023-03-01T06:18:39;3.50;86.90
18126;DHT22;53956;52.442;13.284;2023-03-01T06:21:07;3.40;86.80
18126;DHT22;53956;52.442;13.284;2023-03-01T06:23:34;3.20;86.90
18126;DHT22;53956;52.442;13.284;2023-03-01T06:26:05;3.30;87.30
18126;DHT22;53956;52.442;13.284;2023-03-01T06:28:34;3.20;87.30
18126;DHT22;53956;52.442;13.284;2023-03-01T06:31:00;3.40;87.30
18126;DHT22;53956;52.442;13.284;2023-03-01T06:33:27;3.80;86.80
18126;DHT22;53956;52.442;13.284;2023-03-01T06:35:54;3.80;86.30
18126;DHT22;53956;52.442;13.284;2023-03-01T06:38:21;4.10;85.70
18126;DHT22;53956;52.442;13.284;2023-03-01T06:40:51;4.40;85.60
18126;DHT22;53956;52.442;13.284;2023-03-01T06:43:18;4.20;85.90
18126;DHT22;53956;52.442;13.284;2023-03-01T06:45:46;4.40;85.60
18126;DHT22;53956;52.442;13.284;2023-03-01T06:48:13;4.40;85.30
18126;DHT22;53956;52.442;13.284;2023-03-01T06:50:39;4.40;85.00
18126;DHT22;53956;52.442;13.284;2023-03-01T06:53:06;4.60;84.80
18126;DHT22;53956;52.442;13.284;2023-03-01T06:55:33;4.70;84.20
18126;DHT22;53956;52.442;13.284;2023-03-01T06:58:01;5.10;83.70
18126;DHT22;53956;52.442;13.284;2023-03-01T07:00:28;5.60;82.20
18126;DHT22;53956;52.442;13.284;2023-03-01T07:02:58;6.30;81.30
18126;DHT22;53956;52.442;13.284;2023-03-01T07:05:25;7.20;78.90
18126;DHT22;53956;52.442;13.284;2023-03-01T07:07:53;8.20;74.60
18126;DHT22;53956;52.442;13.284;2023-03-01T07:10:20;8.70;72.40
18126;DHT22;53956;52.442;13.284;2023-03-01T07:12:47;9.20;71.30
18126;DHT22;53956;52.442;13.284;2023-03-01T07:15:13;9.50;69.80
18126;DHT22;53956;52.442;13.284;2023-03-01T07:17:40;9.70;69.60
18126;DHT22;53956;52.442;13.284;2023-03-01T07:20:10;9.80;68.90
18126;DHT22;53956;52.442;13.284;2023-03-01T07:22:39;10.20;68.30
18126;DHT22;53956;52.442;13.284;2023-03-01T07:25:06;11.00;66.20
18126;DHT22;53956;52.442;13.284;2023-03-01T07:27:33;11.60;65.40
18126;DHT22;53956;52.442;13.284;2023-03-01T07:30:00;12.10;64.20
18126;DHT22;53956;52.442;13.284;2023-03-01T07:32:27;12.70;62.30
18126;DHT22;53956;52.442;13.284;2023-03-01T07:34:53;13.30;61.60
18126;DHT22;53956;52.442;13.284;2023-03-01T07:37:21;13.60;60.70
18126;DHT22;53956;52.442;13.284;2023-03-01T07:39:48;13.80;60.40
18126;DHT22;53956;52.442;13.284;2023-03-01T07:42:14;14.00;60.20
18126;DHT22;53956;52.442;13.284;2023-03-01T07:44:41;14.30;59.40
18126;DHT22;53956;52.442;13.284;2023-03-01T07:47:08;14.70;58.70
18126;DHT22;53956;52.442;13.284;2023-03-01T07:49:34;14.60;58.40
18126;DHT22;53956;52.442;13.284;2023-03-01T07:52:01;14.50;57.70
18126;DHT22;53956;52.442;13.284;2023-03-01T07:54:29;14.40;57.30
18126;DHT22;53956;52.442;13.284;2023-03-01T07:56:56;14.80;57.30
18126;DHT22;53956;52.442;13.284;2023-03-01T07:59:23;14.90;57.00
18126;DHT22;53956;52.442;13.284;2023-03-01T08:01:54;15.00;56.40
18126;DHT22;53956;52.442;13.284;2023-03-01T08:04:21;15.30;55.60
18126;DHT22;53956;52.442;13.284;2023-03-01T08:06:48;15.00;55.80
18126;DHT22;53956;52.442;13.284;2023-03-01T08:09:15;14.40;56.50
18126;DHT22;53956;52.442;13.284;2023-03-01T08:11:43;14.70;56.40
18126;DHT22;53956;52.442;13.284;2023-03-01T08:14:09;14.20;56.30
18126;DHT22;53956;52.442;13.284;2023-03-01T08:16:37;13.90;56.30
18126;DHT22;53956;52.442;13.284;2023-03-01T08:19:04;13.70;56.90
18126;DHT22;53956;52.442;13.284;2023-03-01T08:21:31;14.40;55.80
18126;DHT22;53956;52.442;13.284;2023-03-01T08:24:00;13.90;55.00
18126;DHT22;53956;52.442;13.284;2023-03-01T08:26:26;13.20;57.10
18126;DHT22;53956;52.442;13.284;2023-03-01T08:28:55;13.30;57.30
18126;DHT22;53956;52.442;13.284;2023-03-01T08:31:24;13.70;56.40
18126;DHT22;53956;52.442;13.284;2023-03-01T08:33:53;13.50;55.80
18126;DHT22;53956;52.442;13.284;2023-03-01T08:36:22;12.90;57.00
18126;DHT22;53956;52.442;13.284;2023-03-01T08:38:49;12.70;58.60
18126;DHT22;53956;52.442;13.284;2023-03-01T08:41:15;12.30;60.60
18126;DHT22;53956;52.442;13.284;2023-03-01T08:43:42;12.90;57.50
18126;DHT22;53956;52.442;13.284;2023-03-01T08:46:11;13.10;56.70
18126;DHT22;53956;52.442;13.284;2023-03-01T08:48:38;12.70;57.30
18126;DHT22;53956;52.442;13.284;2023-03-01T08:51:09;12.80;57.20
18126;DHT22;53956;52.442;13.284;2023-03-01T08:53:35;13.20;56.70
18126;DHT22;53956;52.442;13.284;2023-03-01T08:56:02;13.70;55.20
18126;DHT22;53956;52.442;13.284;2023-03-01T08:58:29;13.60;55.00
18126;DHT22;53956;52.442;13.284;2023-03-01T09:00:56;13.40;56.40
18126;DHT22;53956;52.442;13.284;2023-03-01T09:03:25;13.70;56.40
18126;DHT22;53956;52.442;13.284;2023-03-01T09:05:52;13.70;55.90
18126;DHT22;53956;52.442;13.284;2023-03-01T09:08:19;13.90;55.50
18126;DHT22;53956;52.442;13.284;2023-03-01T09:10:46;13.80;55.30
18126;DHT22;53956;52.442;13.284;2023-03-01T09:13:13;13.50;55.50
18126;DHT22;53956;52.442;13.284;2023-03-01T09:15:39;13.10;56.10
18126;DHT22;53956;52.442;13.284;2023-03-01T09:18:06;13.10;55.40
18126;DHT22;53956;52.442;13.284;2023-03-01T09:20:34;12.50;57.50
18126;DHT22;53956;52.442;13.284;2023-03-01T09:23:01;12.20;58.60
18126;DHT22;53956;52.442;13.284;2023-03-01T09:25:27;11.80;58.50
18126;DHT22;53956;52.442;13.284;2023-03-01T09:27:55;11.80;58.70
18126;DHT22;53956;52.442;13.284;2023-03-01T09:30:22;11.40;59.40
18126;DHT22;53956;52.442;13.284;2023-03-01T09:32:49;11.40;59.70
18126;DHT22;53956;52.442;13.284;2023-03-01T09:35:16;11.40;59.20
18126;DHT22;53956;52.442;13.284;2023-03-01T09:37:46;11.50;59.00
18126;DHT22;53956;52.442;13.284;2023-03-01T09:40:17;11.30;58.00
18126;DHT22;53956;52.442;13.284;2023-03-01T09:42:53;11.00;58.10
18126;DHT22;53956;52.442;13.284;2023-03-01T09:45:33;10.90;58.50
18126;DHT22;53956;52.442;13.284;2023-03-01T09:48:01;11.00;58.80
18126;DHT22;53956;52.442;13.284;2023-03-01T09:50:33;10.80;59.50
18126;DHT22;53956;52.442;13.284;2023-03-01T09:53:05;10.90;60.00
18126;DHT22;53956;52.442;13.284;2023-03-01T09:55:38;10.90;60.60
18126;DHT22;53956;52.442;13.284;2023-03-01T09:58:31;11.10;59.20
18126;DHT22;53956;52.442;13.284;2023-03-01T10:01:10;11.10;59.20
18126;DHT22;53956;52.442;13.284;2023-03-01T10:03:43;11.00;57.00
18126;DHT22;53956;52.442;13.284;2023-03-01T10:06:14;10.60;58.20
18126;DHT22;53956;52.442;13.284;2023-03-01T10:08:47;10.60;58.40
18126;DHT22;53956;52.442;13.284;2023-03-01T10:11:21;10.30;58.80
18126;DHT22;53956;52.442;13.284;2023-03-01T10:13:55;10.50;59.20
18126;DHT22;53956;52.442;13.284;2023-03-01T10:16:28;10.50;59.00
18126;DHT22;53956;52.442;13.284;2023-03-01T10:19:02;10.70;58.20
18126;DHT22;53956;52.442;13.284;2023-03-01T10:21:29;10.60;57.30
18126;DHT22;53956;52.442;13.284;2023-03-01T10:24:10;10.50;57.90
18126;DHT22;53956;52.442;13.284;2023-03-01T10:26:48;10.60;57.60
18126;DHT22;53956;52.442;13.284;2023-03-01T10:29:18;10.70;57.50
18126;DHT22;53956;52.442;13.284;2023-03-01T10:31:47;10.70;58.20
18126;DHT22;53956;52.442;13.284;2023-03-01T10:34:16;10.60;57.10
18126;DHT22;53956;52.442;13.284;2023-03-01T10:36:44;10.70;58.40
18126;DHT22;53956;52.442;13.284;2023-03-01T10:39:17;10.80;58.10
18126;DHT22;53956;52.442;13.284;2023-03-01T10:42:02;10.90;58.30
18126;DHT22;53956;52.442;13.284;2023-03-01T10:44:37;11.10;58.40
18126;DHT22;53956;52.442;13.284;2023-03-01T10:47:03;11.10;58.40
18126;DHT22;53956;52.442;13.284;2023-03-01T10:49:31;11.40;58.30
18126;DHT22;53956;52.442;13.284;2023-03-01T10:52:11;11.30;57.10
18126;DHT22;53956;52.442;13.284;2023-03-01T10:54:51;10.90;57.30
18126;DHT22;53956;52.442;13.284;2023-03-01T10:57:28;10.80;56.10
18126;DHT22;53956;52.442;13.284;2023-03-01T11:00:10;10.70;56.40
18126;DHT22;53956;52.442;13.284;2023-03-01T11:02:41;10.90;57.30
18126;DHT22;53956;52.442;13.284;2023-03-01T11:05:18;10.90;57.50
18126;DHT22;53956;52.442;13.284;2023-03-01T11:07:49;10.90;57.70
18126;DHT22;53956;52.442;13.284;2023-03-01T11:10:20;10.90;58.00
18126;DHT22;53956;52.442;13.284;2023-03-01T11:12:47;10.80;57.30
18126;DHT22;53956;52.442;13.284;2023-03-01T11:15:25;10.80;57.90
18126;DHT22;53956;52.442;13.284;2023-03-01T11:17:53;11.00;56.90
18126;DHT22;53956;52.442;13.284;2023-03-01T11:20:25;10.80;56.90
18126;DHT22;53956;52.442;13.284;2023-03-01T11:22:54;10.90;56.70
18126;DHT22;53956;52.442;13.284;2023-03-01T11:25:26;11.10;56.70
18126;DHT22;53956;52.442;13.284;2023-03-01T11:27:54;10.90;55.40
18126;DHT22;53956;52.442;13.284;2023-03-01T11:30:25;10.80;55.30
18126;DHT22;53956;52.442;13.284;2023-03-01T11:33:03;10.90;56.40
18126;DHT22;53956;52.442;13.284;2023-03-01T11:35:32;11.20;56.90
18126;DHT22;53956;52.442;13.284;2023-03-01T11:38:16;11.10;56.40
18126;DHT22;53956;52.442;13.284;2023-03-01T11:40:51;11.00;55.20
18126;DHT22;53956;52.442;13.284;2023-03-01T11:43:23;10.70;55.00
18126;DHT22;53956;52.442;13.284;2023-03-01T11:46:08;10.70;55.30
18126;DHT22;53956;52.442;13.284;2023-03-01T11:48:53;10.70;55.00
18126;DHT22;53956;52.442;13.284;2023-03-01T11:51:33;10.90;55.40
18126;DHT22;53956;52.442;13.284;2023-03-01T11:54:09;10.90;55.20
18126;DHT22;53956;52.442;13.284;2023-03-01T11:56:45;11.10;55.00
18126;DHT22;53956;52.442;13.284;2023-03-01T11:59:23;11.10;54.30
18126;DHT22;53956;52.442;13.284;2023-03-01T12:02:09;10.80;55.00
18126;DHT22;53956;52.442;13.284;2023-03-01T12:05:08;10.70;54.90
18126;DHT22;53956;52.442;13.284;2023-03-01T12:07:46;10.70;56.20
18126;DHT22;53956;52.442;13.284;2023-03-01T12:10:24;10.90;56.60
18126;DHT22;53956;52.442;13.284;2023-03-01T12:13:03;10.90;55.60
18126;DHT22;53956;52.442;13.284;2023-03-01T12:15:45;10.70;55.10
18126;DHT22;53956;52.442;13.284;2023-03-01T12:18:42;10.80;55.40
18126;DHT22;53956;52.442;13.284;2023-03-01T12:21:21;10.80;55.70
18126;DHT22;53956;52.442;13.284;2023-03-01T12:24:10;10.60;55.10
18126;DHT22;53956;52.442;13.284;2023-03-01T12:26:46;10.70;55.40
18126;DHT22;53956;52.442;13.284;2023-03-01T12:29:25;10.90;55.60
18126;DHT22;53956;52.442;13.284;2023-03-01T12:35:16;11.00;55.10
18126;DHT22;53956;52.442;13.284;2023-03-01T12:37:56;10.70;55.00
18126;DHT22;53956;52.442;13.284;2023-03-01T12:40:39;10.80;54.70
18126;DHT22;53956;52.442;13.284;2023-03-01T12:43:24;10.80;54.40
18126;DHT22;53956;52.442;13.284;2023-03-01T12:46:07;10.80;54.10
18126;DHT22;53956;52.442;13.284;2023-03-01T12:48:43;10.80;54.70
18126;DHT22;53956;52.442;13.284;2023-03-01T12:51:15;10.80;53.40
18126;DHT22;53956;52.442;13.284;2023-03-01T12:53:46;10.80;53.00
18126;DHT22;53956;52.442;13.284;2023-03-01T12:56:16;10.60;51.90
18126;DHT22;53956;52.442;13.284;2023-03-01T12:58:54;10.70;52.00
18126;DHT22;53956;52.442;13.284;2023-03-01T13:01:33;10.80;51.90
18126;DHT22;53956;52.442;13.284;2023-03-01T13:04:16;10.70;51.50
18126;DHT22;53956;52.442;13.284;2023-03-01T13:06:51;10.80;52.60
18126;DHT22;53956;52.442;13.284;2023-03-01T13:09:28;10.90;52.70
18126;DHT22;53956;52.442;13.284;2023-03-01T13:11:56;10.90;52.80
18126;DHT22;53956;52.442;13.284;2023-03-01T13:14:37;10.90;53.30
18126;DHT22;53956;52.442;13.284;2023-03-01T13:17:30;10.80;50.90
18126;DHT22;53956;52.442;13.284;2023-03-01T13:19:58;10.80;51.60
18126;DHT22;53956;52.442;13.284;2023-03-01T13:22:28;10.80;50.50
18126;DHT22;53956;52.442;13.284;2023-03-01T13:25:02;10.90;49.90
18126;DHT22;53956;52.442;13.284;2023-03-01T13:27:29;10.80;49.20
18126;DHT22;53956;52.442;13.284;2023-03-01T13:29:59;10.80;50.20
18126;DHT22;53956;52.442;13.284;2023-03-01T13:32:31;10.90;49.60
18126;DHT22;53956;52.442;13.284;2023-03-01T13:34:59;10.80;49.60
18126;DHT22;53956;52.442;13.284;2023-03-01T13:37:35;10.70;50.50
18126;DHT22;53956;52.442;13.284;2023-03-01T13:43:31;10.80;52.10
18126;DHT22;53956;52.442;13.284;2023-03-01T13:46:00;10.90;51.10
18126;DHT22;53956;52.442;13.284;2023-03-01T13:48:30;10.80;50.20
18126;DHT22;53956;52.442;13.284;2023-03-01T13:50:59;10.90;49.90
18126;DHT22;53956;52.442;13.284;2023-03-01T13:53:30;10.80;49.80
18126;DHT22;53956;52.442;13.284;2023-03-01T13:56:00;10.60;49.80
18126;DHT22;53956;52.442;13.284;2023-03-01T13:58:29;10.70;49.50
18126;DHT22;53956;52.442;13.284;2023-03-01T14:00:59;10.70;50.50
18126;DHT22;53956;52.442;13.284;2023-03-01T14:03:27;10.80;50.90
18126;DHT22;53956;52.442;13.284;2023-03-01T14:06:03;11.00;51.50
18126;DHT22;53956;52.442;13.284;2023-03-01T14:08:32;11.10;51.90
18126;DHT22;53956;52.442;13.284;2023-03-01T14:11:21;10.90;48.80
18126;DHT22;53956;52.442;13.284;2023-03-01T14:13:59;10.80;49.10
18126;DHT22;53956;52.442;13.284;2023-03-01T14:16:35;10.90;50.20
18126;DHT22;53956;52.442;13.284;2023-03-01T14:19:14;10.90;50.00
18126;DHT22;53956;52.442;13.284;2023-03-01T14:21:44;10.80;49.80
18126;DHT22;53956;52.442;13.284;2023-03-01T14:24:17;10.80;49.50
18126;DHT22;53956;52.442;13.284;2023-03-01T14:26:44;10.90;49.40
18126;DHT22;53956;52.442;13.284;2023-03-01T14:29:24;10.80;49.90
18126;DHT22;53956;52.442;13.284;2023-03-01T14:31:50;10.90;49.90
18126;DHT22;53956;52.442;13.284;2023-03-01T14:34:24;10.90;50.70
18126;DHT22;53956;52.442;13.284;2023-03-01T14:36:53;10.80;50.80
18126;DHT22;53956;52.442;13.284;2023-03-01T14:39:24;10.80;49.80
18126;DHT22;53956;52.442;13.284;2023-03-01T14:41:52;10.70;49.20
18126;DHT22;53956;52.442;13.284;2023-03-01T14:44:22;10.70;49.90
18126;DHT22;53956;52.442;13.284;2023-03-01T14:46:53;10.80;49.80
18126;DHT22;53956;52.442;13.284;2023-03-01T14:49:22;10.90;50.40
18126;DHT22;53956;52.442;13.284;2023-03-01T14:51:54;11.00;50.50
18126;DHT22;53956;52.442;13.284;2023-03-01T14:54:25;10.90;49.60
18126;DHT22;53956;52.442;13.284;2023-03-01T14:56:53;10.90;49.70
18126;DHT22;53956;52.442;13.284;2023-03-01T14:59:22;10.90;49.60
18126;DHT22;53956;52.442;13.284;2023-03-01T15:01:50;11.10;51.90
18126;DHT22;53956;52.442;13.284;2023-03-01T15:04:18;11.00;50.50
18126;DHT22;53956;52.442;13.284;2023-03-01T15:06:46;10.90;51.00
18126;DHT22;53956;52.442;13.284;2023-03-01T15:09:16;10.90;50.60
18126;DHT22;53956;52.442;13.284;2023-03-01T15:11:44;10.90;50.50
18126;DHT22;53956;52.442;13.284;2023-03-01T15:14:39;11.00;50.10
18126;DHT22;53956;52.442;13.284;2023-03-01T15:17:30;10.80;51.30
18126;DHT22;53956;52.442;13.284;2023-03-01T15:19:57;11.00;53.80
18126;DHT22;53956;52.442;13.284;2023-03-01T15:22:25;10.80;50.10
18126;DHT22;53956;52.442;13.284;2023-03-01T15:24:54;10.80;50.10
18126;DHT22;53956;52.442;13.284;2023-03-01T15:27:24;10.70;50.30
18126;DHT22;53956;52.442;13.284;2023-03-01T15:29:53;10.90;54.60
18126;DHT22;53956;52.442;13.284;2023-03-01T15:32:28;11.00;52.60
18126;DHT22;53956;52.442;13.284;2023-03-01T15:34:55;11.00;51.30
18126;DHT22;53956;52.442;13.284;2023-03-01T15:37:39;10.80;50.80
18126;DHT22;53956;52.442;13.284;2023-03-01T15:40:19;10.90;51.50
18126;DHT22;53956;52.442;13.284;2023-03-01T15:42:47;10.80;52.00
18126;DHT22;53956;52.442;13.284;2023-03-01T15:45:23;10.80;52.10
18126;DHT22;53956;52.442;13.284;2023-03-01T15:47:54;10.80;52.80
18126;DHT22;53956;52.442;13.284;2023-03-01T15:50:25;10.80;53.10